createdAt,value
2023-01-09T00:01:24.402Z,95749.72
2023-01-09T00:03:51.089Z,95747.91
2023-01-09T00:06:17.711Z,95756.56
2023-01-09T00:08:44.607Z,95744.69
2023-01-09T00:11:11.273Z,95734.19
2023-01-09T00:13:37.961Z,95741.03
2023-01-09T00:16:05.586Z,95735.56
2023-01-09T00:18:32.202Z,95731.75
2023-01-09T00:21:02.478Z,95728.34
2023-01-09T00:23:29.147Z,95718.91
2023-01-09T00:26:09.355Z,95723.34
2023-01-09T00:28:36.046Z,95712.84
2023-01-09T00:31:03.206Z,95712.06
2023-01-09T00:33:34.974Z,95700.97
2023-01-09T00:36:01.621Z,95718.13
2023-01-09T00:38:28.228Z,95697.16
2023-01-09T00:40:54.864Z,95692.50
2023-01-09T00:43:22.734Z,95697.91
2023-01-09T00:45:49.418Z,95684.06
2023-01-09T00:48:17.635Z,95688.91
2023-01-09T00:50:44.225Z,95679.63
2023-01-09T00:53:16.435Z,95679.03
2023-01-09T00:55:43.038Z,95673.00
2023-01-09T00:58:09.732Z,95680.06
2023-01-09T01:00:36.363Z,95668.97
2023-01-09T01:03:03.048Z,95669.78
2023-01-09T01:05:48.037Z,95662.72
2023-01-09T01:08:15.956Z,95661.94
2023-01-09T01:10:42.662Z,95666.38
2023-01-09T01:13:09.497Z,95672.22
2023-01-09T01:15:39.299Z,95675.44
2023-01-09T01:18:05.928Z,95661.53
2023-01-09T01:20:32.530Z,95664.97
2023-01-09T01:22:59.225Z,95664.34
2023-01-09T01:25:25.845Z,95668.38
2023-01-09T01:27:52.480Z,95663.94
2023-01-09T01:30:19.896Z,95673.59
2023-01-09T01:32:46.536Z,95664.75
2023-01-09T01:35:13.237Z,95674.59
2023-01-09T01:37:40.086Z,95675.56
2023-01-09T01:40:07.735Z,95677.00
2023-01-09T01:42:34.439Z,95693.69
2023-01-09T01:45:02.387Z,95696.72
2023-01-09T01:47:49.191Z,95699.53
2023-01-09T01:50:41.258Z,95714.19
2023-01-09T01:53:16.577Z,95716.22
2023-01-09T01:55:57.079Z,95728.09
2023-01-09T01:58:23.698Z,95730.22
2023-01-09T02:00:50.838Z,95740.31
2023-01-09T02:03:18.546Z,95747.38
2023-01-09T02:05:45.198Z,95758.25
2023-01-09T02:08:11.848Z,95763.75
2023-01-09T02:10:38.444Z,95766.75
2023-01-09T02:13:05.064Z,95759.09
2023-01-09T02:16:04.199Z,95760.09
2023-01-09T02:19:04.951Z,95762.53
2023-01-09T02:21:47.056Z,95754.84
2023-01-09T02:24:39.283Z,95750.81
2023-01-09T02:27:40.096Z,95744.41
2023-01-09T02:30:15.540Z,95737.97
2023-01-09T02:32:45.932Z,95731.91
2023-01-09T02:35:34.375Z,95733.91
2023-01-09T02:38:44.102Z,95724.84
2023-01-09T02:41:24.166Z,95727.88
2023-01-09T02:44:20.379Z,95715.63
2023-01-09T02:46:46.993Z,95712.41
2023-01-09T02:49:14.032Z,95711.81
2023-01-09T02:51:50.281Z,95700.94
2023-01-09T02:54:55.720Z,95698.75
2023-01-09T02:57:28.538Z,95694.94
2023-01-09T03:00:01.035Z,95707.38
2023-01-09T03:02:48.469Z,95695.72
2023-01-09T03:05:15.024Z,95689.31
2023-01-09T03:07:55.760Z,95680.84
2023-01-09T03:10:26.913Z,95672.59
2023-01-09T03:12:54.334Z,95681.44
2023-01-09T03:15:22.483Z,95672.81
2023-01-09T03:17:49.187Z,95666.56
2023-01-09T03:20:17.836Z,95644.22
2023-01-09T03:23:02.411Z,95649.03
2023-01-09T03:25:29.492Z,95648.63
2023-01-09T03:28:05.635Z,95641.78
2023-01-09T03:30:32.963Z,95644.19
2023-01-09T03:32:59.597Z,95651.25
2023-01-09T03:35:26.293Z,95647.03
2023-01-09T03:37:52.902Z,95645.81
2023-01-09T03:40:20.107Z,95646.63
2023-01-09T03:42:46.764Z,95647.03
2023-01-09T03:45:13.623Z,95640.97
2023-01-09T03:47:40.254Z,95648.22
2023-01-09T03:50:07.706Z,95654.47
2023-01-09T03:52:36.035Z,95653.88
2023-01-09T03:55:02.830Z,95651.00
2023-01-09T03:57:29.484Z,95657.69
2023-01-09T03:59:56.107Z,95657.28
2023-01-09T04:02:22.768Z,95660.47
2023-01-09T04:04:49.371Z,95666.53
2023-01-09T04:07:16.028Z,95660.94
2023-01-09T04:09:42.653Z,95664.72
2023-01-09T04:12:09.295Z,95672.56
2023-01-09T04:14:35.905Z,95665.56
2023-01-09T04:17:02.573Z,95663.94
2023-01-09T04:19:29.189Z,95670.81
2023-01-09T04:21:55.818Z,95673.97
2023-01-09T04:24:22.445Z,95678.44
2023-01-09T04:26:49.093Z,95679.44
2023-01-09T04:29:15.719Z,95668.56
2023-01-09T04:31:42.369Z,95678.59
2023-01-09T04:34:09.043Z,95675.78
2023-01-09T04:36:36.309Z,95694.09
2023-01-09T04:39:03.288Z,95715.66
2023-01-09T04:41:48.218Z,95707.03
2023-01-09T04:44:22.850Z,95701.38
2023-01-09T04:46:49.478Z,95693.72
2023-01-09T04:49:16.119Z,95695.94
2023-01-09T04:51:42.740Z,95689.09
2023-01-09T04:54:09.340Z,95679.63
2023-01-09T04:56:36.444Z,95676.59
2023-01-09T04:59:03.936Z,95682.63
2023-01-09T05:01:30.717Z,95679.00
2023-01-09T05:03:57.458Z,95691.69
2023-01-09T05:06:24.198Z,95690.47
2023-01-09T05:08:50.836Z,95697.50
2023-01-09T05:11:17.527Z,95706.19
2023-01-09T05:13:44.131Z,95699.53
2023-01-09T05:16:11.105Z,95703.75
2023-01-09T05:18:37.788Z,95717.41
2023-01-09T05:21:04.702Z,95704.56
2023-01-09T05:23:31.301Z,95700.94
2023-01-09T05:25:57.930Z,95695.13
2023-01-09T05:28:24.525Z,95700.38
2023-01-09T05:30:51.159Z,95692.53
2023-01-09T05:33:17.778Z,95690.91
2023-01-09T05:35:44.415Z,95690.50
2023-01-09T05:38:11.642Z,95689.69
2023-01-09T05:40:40.474Z,95669.97
2023-01-09T05:43:07.509Z,95675.56
2023-01-09T05:45:34.512Z,95686.03
2023-01-09T05:48:01.153Z,95663.06
2023-01-09T05:50:27.790Z,95661.47
2023-01-09T05:52:55.531Z,95667.53
2023-01-09T05:55:22.136Z,95667.13
2023-01-09T05:57:48.711Z,95670.34
2023-01-09T06:00:15.804Z,95673.53
2023-01-09T06:02:42.565Z,95678.81
2023-01-09T06:05:09.454Z,95688.09
2023-01-09T06:07:39.330Z,95679.44
2023-01-09T06:10:08.027Z,95687.69
2023-01-09T06:12:34.686Z,95686.50
2023-01-09T06:15:01.351Z,95679.25
2023-01-09T06:17:28.064Z,95690.72
2023-01-09T06:19:54.752Z,95686.09
2023-01-09T06:22:21.356Z,95687.09
2023-01-09T06:24:47.992Z,95685.69
2023-01-09T06:27:16.011Z,95689.53
2023-01-09T06:29:42.643Z,95684.06
2023-01-09T06:32:09.239Z,95686.09
2023-01-09T06:34:35.863Z,95668.19
2023-01-09T06:37:02.473Z,95680.44
2023-01-09T06:39:29.109Z,95682.47
2023-01-09T06:41:55.771Z,95687.31
2023-01-09T06:44:22.469Z,95679.44
2023-01-09T06:46:49.147Z,95679.25
2023-01-09T06:49:17.025Z,95687.88
2023-01-09T06:51:43.667Z,95694.94
2023-01-09T06:54:10.410Z,95701.19
2023-01-09T06:56:37.079Z,95702.59
2023-01-09T06:59:03.764Z,95702.59
2023-01-09T07:01:30.464Z,95715.69
2023-01-09T07:03:57.281Z,95727.16
2023-01-09T07:06:23.905Z,95727.97
2023-01-09T07:08:50.649Z,95725.56
2023-01-09T07:11:17.255Z,95718.31
2023-01-09T07:13:44.105Z,95716.09
2023-01-09T07:16:10.966Z,95726.16
2023-01-09T07:18:37.618Z,95735.63
2023-01-09T07:21:06.321Z,95736.41
2023-01-09T07:23:33.114Z,95749.72
2023-01-09T07:25:59.897Z,95752.53
2023-01-09T07:28:26.715Z,95770.25
2023-01-09T07:30:53.369Z,95779.91
2023-01-09T07:33:19.995Z,95784.75
2023-01-09T07:35:46.689Z,95794.03
2023-01-09T07:38:13.323Z,95804.09
2023-01-09T07:40:39.970Z,95814.75
2023-01-09T07:43:06.648Z,95815.56
2023-01-09T07:45:33.277Z,95831.88
2023-01-09T07:48:00.134Z,95835.53
2023-01-09T07:50:26.741Z,95845.59
2023-01-09T07:52:53.371Z,95847.19
2023-01-09T07:55:20.047Z,95843.59
2023-01-09T07:57:52.637Z,95843.94
2023-01-09T08:00:21.127Z,95847.16
2023-01-09T08:02:54.019Z,95847.91
2023-01-09T08:05:21.117Z,95851.34
2023-01-09T08:07:48.092Z,95867.66
2023-01-09T08:10:15.118Z,95876.94
2023-01-09T08:12:45.291Z,95883.38
2023-01-09T08:15:12.333Z,95902.31
2023-01-09T08:17:40.937Z,95908.34
2023-01-09T08:20:07.796Z,95917.00
2023-01-09T08:22:34.396Z,95932.94
2023-01-09T08:25:01.000Z,95928.91
2023-01-09T08:27:27.808Z,95939.78
2023-01-09T08:29:54.418Z,95946.31
2023-01-09T08:32:20.996Z,95956.34
2023-01-09T08:34:47.725Z,95974.44
2023-01-09T08:37:14.364Z,95980.50
2023-01-09T08:39:40.995Z,95988.97
2023-01-09T08:42:26.202Z,96000.28
2023-01-09T08:45:11.554Z,95998.09
2023-01-09T08:47:38.148Z,96000.31
2023-01-09T08:50:04.976Z,96002.38
2023-01-09T08:52:31.583Z,96000.78
2023-01-09T08:54:58.198Z,95996.38
2023-01-09T08:57:24.920Z,95991.13
2023-01-09T08:59:51.605Z,95996.97
2023-01-09T09:02:18.217Z,95995.19
2023-01-09T09:04:44.892Z,95989.53
2023-01-09T09:07:11.504Z,95988.13
2023-01-09T09:09:38.125Z,95978.81
2023-01-09T09:12:05.021Z,95978.41
2023-01-09T09:14:50.315Z,95993.44
2023-01-09T09:17:19.445Z,95988.16
2023-01-09T09:19:46.296Z,95978.69
2023-01-09T09:22:12.902Z,95985.16
2023-01-09T09:24:39.568Z,95983.56
2023-01-09T09:27:06.225Z,95973.44
2023-01-09T09:29:32.926Z,95963.59
2023-01-09T09:32:01.047Z,95969.63
2023-01-09T09:34:27.764Z,95967.84
2023-01-09T09:36:54.422Z,95963.44
2023-01-09T09:39:21.078Z,95957.75
2023-01-09T09:42:25.071Z,95958.78
2023-01-09T09:45:05.655Z,95959.78
2023-01-09T09:47:48.051Z,95942.03
2023-01-09T09:50:31.841Z,95941.81
2023-01-09T09:53:42.909Z,95941.25
2023-01-09T09:56:14.302Z,95938.22
2023-01-09T09:58:42.239Z,95918.44
2023-01-09T10:01:09.302Z,95915.81
2023-01-09T10:03:44.937Z,95913.03
2023-01-09T10:06:30.632Z,95915.41
2023-01-09T10:09:16.349Z,95904.91
2023-01-09T10:11:50.325Z,95897.44
2023-01-09T10:14:24.357Z,95895.22
2023-01-09T10:16:57.201Z,95898.84
2023-01-09T10:19:32.901Z,95892.38
2023-01-09T10:22:02.519Z,95896.84
2023-01-09T10:24:34.954Z,95896.66
2023-01-09T10:27:05.152Z,95892.00
2023-01-09T10:29:53.434Z,95893.63
2023-01-09T10:32:19.914Z,95892.00
2023-01-09T10:35:11.492Z,95889.19
2023-01-09T10:37:40.172Z,95886.97
2023-01-09T10:40:14.396Z,95896.03
2023-01-09T10:43:09.223Z,95895.22
2023-01-09T10:45:54.396Z,95906.31
2023-01-09T10:48:35.814Z,95907.72
2023-01-09T10:51:02.505Z,95908.50
2023-01-09T10:53:32.645Z,95910.53
2023-01-09T10:56:29.046Z,95904.69
2023-01-09T10:58:55.726Z,95897.44
2023-01-09T11:01:27.634Z,95888.75
2023-01-09T11:03:54.370Z,95887.75
2023-01-09T11:06:22.704Z,95874.63
2023-01-09T11:08:50.785Z,95872.19
2023-01-09T11:11:34.806Z,95880.03
2023-01-09T11:14:18.404Z,95875.44
2023-01-09T11:17:12.230Z,95871.84
2023-01-09T11:19:38.841Z,95859.75
2023-01-09T11:22:18.001Z,95861.16
2023-01-09T11:24:44.936Z,95856.13
2023-01-09T11:27:14.235Z,95846.03
2023-01-09T11:29:41.636Z,95832.34
2023-01-09T11:32:21.896Z,95835.16
2023-01-09T11:34:48.546Z,95829.53
2023-01-09T11:37:21.993Z,95824.22
2023-01-09T11:39:49.148Z,95815.38
2023-01-09T11:42:40.765Z,95817.16
2023-01-09T11:45:14.609Z,95826.25
2023-01-09T11:47:41.295Z,95820.03
2023-01-09T11:50:18.676Z,95817.81
2023-01-09T11:52:46.020Z,95821.47
2023-01-09T11:55:15.465Z,95825.69
2023-01-09T11:57:42.330Z,95813.00
2023-01-09T12:00:42.517Z,95823.88
2023-01-09T12:03:36.811Z,95829.50
2023-01-09T12:06:20.641Z,95827.06
2023-01-09T12:08:55.925Z,95838.56
2023-01-09T12:11:41.265Z,95833.31
2023-01-09T12:14:34.763Z,95828.91
2023-01-09T12:17:18.422Z,95821.25
2023-01-09T12:19:55.171Z,95828.09
2023-01-09T12:23:10.322Z,95830.28
2023-01-09T12:26:09.001Z,95834.75
2023-01-09T12:28:42.528Z,95831.13
2023-01-09T12:31:32.503Z,95842.00
2023-01-09T12:34:08.131Z,95848.03
2023-01-09T12:37:01.838Z,95851.47
2023-01-09T12:39:45.200Z,95850.88
2023-01-09T12:42:50.891Z,95850.47
2023-01-09T12:45:41.842Z,95847.44
2023-01-09T12:48:43.658Z,95854.09
2023-01-09T12:51:19.383Z,95860.94
2023-01-09T12:53:50.329Z,95857.28
2023-01-09T12:56:20.185Z,95863.47
2023-01-09T12:58:52.389Z,95857.59
2023-01-09T13:01:25.627Z,95853.56
2023-01-09T13:04:14.036Z,95854.00
2023-01-09T13:06:43.637Z,95855.25
2023-01-09T13:09:22.289Z,95866.13
2023-01-09T13:12:08.134Z,95864.91
2023-01-09T13:14:55.255Z,95881.47
2023-01-09T13:17:41.021Z,95880.22
2023-01-09T13:20:33.984Z,95888.72
2023-01-09T13:23:00.865Z,95887.53
2023-01-09T13:25:49.796Z,95888.31
2023-01-09T13:28:25.366Z,95890.34
2023-01-09T13:30:52.752Z,95889.69
2023-01-09T13:33:23.461Z,95893.94
2023-01-09T13:35:57.585Z,95884.25
2023-01-09T13:38:25.412Z,95891.50
2023-01-09T13:41:32.369Z,95881.41
2023-01-09T13:44:06.565Z,95891.25
2023-01-09T13:46:57.059Z,95896.31
2023-01-09T13:49:33.265Z,95899.34
2023-01-09T13:52:25.807Z,95909.59
2023-01-09T13:54:55.507Z,95916.44
2023-01-09T13:57:32.045Z,95929.31
2023-01-09T14:00:00.945Z,95933.25
2023-01-09T14:02:39.581Z,95949.66
2023-01-09T14:05:11.427Z,95951.22
2023-01-09T14:07:49.273Z,95959.09
2023-01-09T14:10:22.622Z,95953.34
2023-01-09T14:12:49.303Z,95958.50
2023-01-09T14:15:40.627Z,95955.03
2023-01-09T14:18:14.653Z,95957.81
2023-01-09T14:20:42.768Z,95962.03
2023-01-09T14:23:51.620Z,95960.25
2023-01-09T14:26:21.445Z,95969.88
2023-01-09T14:28:48.115Z,95966.19
2023-01-09T14:31:27.871Z,95975.13
2023-01-09T14:34:30.770Z,95969.91
2023-01-09T14:36:59.610Z,95975.22
2023-01-09T14:39:26.304Z,95981.22
2023-01-09T14:41:57.972Z,95979.44
2023-01-09T14:44:33.008Z,95980.28
2023-01-09T14:47:03.327Z,95982.50
2023-01-09T14:49:39.617Z,95979.84
2023-01-09T14:52:13.239Z,95980.81
2023-01-09T14:54:43.625Z,95980.38
2023-01-09T14:57:26.029Z,95986.91
2023-01-09T15:00:22.150Z,95990.16
2023-01-09T15:02:48.820Z,95989.66
2023-01-09T15:05:20.801Z,95994.84
2023-01-09T15:07:59.320Z,95991.69
2023-01-09T15:10:28.378Z,95999.94
2023-01-09T15:12:55.284Z,96008.28
2023-01-09T15:15:22.248Z,96004.72
2023-01-09T15:17:54.313Z,96010.66
2023-01-09T15:20:27.231Z,96004.63
2023-01-09T15:22:55.219Z,96005.81
2023-01-09T15:25:38.015Z,96008.06
2023-01-09T15:28:30.980Z,96009.44
2023-01-09T15:31:03.513Z,96006.97
2023-01-09T15:33:30.090Z,96007.75
2023-01-09T15:36:02.162Z,96007.38
2023-01-09T15:38:30.451Z,96013.91
2023-01-09T15:41:02.240Z,96013.34
2023-01-09T15:43:29.250Z,96011.28
2023-01-09T15:45:56.155Z,96020.66
2023-01-09T15:48:26.584Z,96034.44
2023-01-09T15:50:55.938Z,96024.06
2023-01-09T15:53:23.729Z,96026.38
2023-01-09T15:56:12.802Z,96026.88
2023-01-09T15:58:40.806Z,96036.19
2023-01-09T16:01:12.709Z,96040.25
2023-01-09T16:03:39.442Z,96044.88
2023-01-09T16:06:10.528Z,96037.16
2023-01-09T16:08:39.327Z,96037.97
2023-01-09T16:11:09.854Z,96036.41
2023-01-09T16:13:43.396Z,96033.44
2023-01-09T16:16:10.089Z,96050.00
2023-01-09T16:18:37.678Z,96049.13
2023-01-09T16:21:22.361Z,96060.22
2023-01-09T16:24:00.778Z,96064.19
2023-01-09T16:26:28.668Z,96066.00
2023-01-09T16:28:55.335Z,96064.31
2023-01-09T16:31:24.712Z,96073.03
2023-01-09T16:33:59.433Z,96066.91
2023-01-09T16:36:26.625Z,96063.56
2023-01-09T16:38:54.049Z,96061.47
2023-01-09T16:41:40.528Z,96065.75
2023-01-09T16:44:09.735Z,96070.91
2023-01-09T16:46:41.585Z,96077.88
2023-01-09T16:49:28.844Z,96078.63
2023-01-09T16:51:55.688Z,96076.69
2023-01-09T16:54:22.280Z,96072.41
2023-01-09T16:56:50.193Z,96074.63
2023-01-09T16:59:24.486Z,96082.38
2023-01-09T17:01:51.712Z,96083.84
2023-01-09T17:04:20.147Z,96084.97
2023-01-09T17:06:48.045Z,96088.25
2023-01-09T17:09:16.826Z,96098.66
2023-01-09T17:11:43.481Z,96106.00
2023-01-09T17:14:11.870Z,96110.81
2023-01-09T17:16:38.679Z,96111.13
2023-01-09T17:19:05.330Z,96116.63
2023-01-09T17:21:32.257Z,96120.38
2023-01-09T17:24:18.057Z,96125.41
2023-01-09T17:27:05.375Z,96127.84
2023-01-09T17:29:31.994Z,96136.25
2023-01-09T17:31:58.671Z,96140.00
2023-01-09T17:34:25.311Z,96139.06
2023-01-09T17:36:55.492Z,96148.56
2023-01-09T17:39:22.924Z,96156.16
2023-01-09T17:41:49.567Z,96162.06
2023-01-09T17:44:16.203Z,96157.03
2023-01-09T17:46:43.519Z,96163.88
2023-01-09T17:49:15.307Z,96166.50
2023-01-09T17:51:41.933Z,96165.94
2023-01-09T17:54:08.929Z,96174.88
2023-01-09T17:56:37.322Z,96171.09
2023-01-09T17:59:04.835Z,96172.91
2023-01-09T18:01:31.719Z,96185.47
2023-01-09T18:03:58.500Z,96179.84
2023-01-09T18:06:25.308Z,96186.94
2023-01-09T18:08:53.153Z,96182.88
2023-01-09T18:11:20.529Z,96173.53
2023-01-09T18:13:47.913Z,96186.84
2023-01-09T18:16:20.431Z,96184.41
2023-01-09T18:18:47.412Z,96193.50
2023-01-09T18:21:18.614Z,96190.00
2023-01-09T18:23:47.553Z,96198.53
2023-01-09T18:26:20.506Z,96192.88
2023-01-09T18:28:48.671Z,96200.34
2023-01-09T18:31:17.385Z,96198.28
2023-01-09T18:33:47.102Z,96202.56
2023-01-09T18:36:13.964Z,96206.97
2023-01-09T18:38:40.589Z,96207.25
2023-01-09T18:41:07.323Z,96204.63
2023-01-09T18:43:33.942Z,96223.09
2023-01-09T18:46:08.213Z,96226.84
2023-01-09T18:48:34.889Z,96235.94
2023-01-09T18:51:03.068Z,96238.91
2023-01-09T18:53:29.991Z,96231.44
2023-01-09T18:55:56.655Z,96224.44
2023-01-09T18:58:24.297Z,96219.31
2023-01-09T19:00:51.992Z,96219.97
2023-01-09T19:03:18.621Z,96222.94
2023-01-09T19:05:45.263Z,96223.66
2023-01-09T19:08:11.948Z,96223.75
2023-01-09T19:10:38.601Z,96225.63
2023-01-09T19:13:05.227Z,96236.06
2023-01-09T19:15:31.969Z,96241.66
2023-01-09T19:18:01.510Z,96246.50
2023-01-09T19:20:30.436Z,96256.06
2023-01-09T19:22:57.220Z,96262.13
2023-01-09T19:25:26.759Z,96272.91
2023-01-09T19:27:55.734Z,96282.53
2023-01-09T19:30:22.696Z,96283.28
2023-01-09T19:32:49.925Z,96280.38
2023-01-09T19:35:17.550Z,96290.13
2023-01-09T19:37:44.507Z,96295.34
2023-01-09T19:40:11.764Z,96294.28
2023-01-09T19:42:43.756Z,96283.78
2023-01-09T19:45:10.499Z,96295.41
2023-01-09T19:47:37.684Z,96305.06
2023-01-09T19:50:08.393Z,96309.72
2023-01-09T19:52:35.948Z,96308.47
2023-01-09T19:55:03.260Z,96310.34
2023-01-09T19:57:37.078Z,96313.00
2023-01-09T20:00:08.904Z,96318.13
2023-01-09T20:02:42.327Z,96321.94
2023-01-09T20:05:09.312Z,96329.72
2023-01-09T20:07:36.167Z,96329.13
2023-01-09T20:10:02.771Z,96342.94
2023-01-09T20:12:31.754Z,96344.78
2023-01-09T20:14:58.459Z,96353.09
2023-01-09T20:17:25.218Z,96358.47
2023-01-09T20:19:56.339Z,96369.97
2023-01-09T20:22:25.884Z,96379.59
2023-01-09T20:24:55.226Z,96378.22
2023-01-09T20:27:21.948Z,96379.94
2023-01-09T20:29:48.553Z,96383.53
2023-01-09T20:32:15.349Z,96387.47
2023-01-09T20:34:43.804Z,96393.16
2023-01-09T20:37:13.437Z,96398.53
2023-01-09T20:39:42.703Z,96400.25
2023-01-09T20:42:11.876Z,96410.59
2023-01-09T20:44:38.497Z,96418.00
2023-01-09T20:47:05.188Z,96417.94
2023-01-09T20:49:31.869Z,96409.88
2023-01-09T20:51:58.624Z,96404.44
2023-01-09T20:54:25.289Z,96416.50
2023-01-09T20:56:51.970Z,96419.16
2023-01-09T20:59:20.925Z,96423.75
2023-01-09T21:01:47.778Z,96441.56
2023-01-09T21:04:21.612Z,96450.19
2023-01-09T21:06:50.059Z,96455.81
2023-01-09T21:09:27.743Z,96460.03
2023-01-09T21:11:56.919Z,96468.34
2023-01-09T21:14:23.586Z,96470.63
2023-01-09T21:16:54.500Z,96470.34
2023-01-09T21:19:25.287Z,96481.28
2023-01-09T21:21:53.440Z,96478.41
2023-01-09T21:24:20.273Z,96478.75
2023-01-09T21:26:47.001Z,96484.00
2023-01-09T21:29:13.600Z,96494.47
2023-01-09T21:31:40.336Z,96500.03
2023-01-09T21:34:07.449Z,96511.13
2023-01-09T21:36:35.397Z,96519.38
2023-01-09T21:39:02.379Z,96524.88
2023-01-09T21:41:47.562Z,96536.34
2023-01-09T21:44:32.973Z,96546.66
2023-01-09T21:47:02.784Z,96573.75
2023-01-09T21:49:31.433Z,96585.66
2023-01-09T21:51:58.282Z,96585.56
2023-01-09T21:54:25.030Z,96593.41
2023-01-09T21:56:57.502Z,96595.38
2023-01-09T21:59:26.270Z,96598.97
2023-01-09T22:01:52.948Z,96611.19
2023-01-09T22:04:23.217Z,96610.06
2023-01-09T22:06:49.939Z,96627.72
2023-01-09T22:09:16.739Z,96641.41
2023-01-09T22:11:43.816Z,96645.59
2023-01-09T22:14:14.806Z,96656.06
2023-01-09T22:16:43.750Z,96666.81
2023-01-09T22:19:11.502Z,96676.94
2023-01-09T22:21:38.678Z,96680.41
2023-01-09T22:24:06.445Z,96695.88
2023-01-09T22:26:33.610Z,96697.69
2023-01-09T22:29:00.278Z,96703.34
2023-01-09T22:31:29.321Z,96695.91
2023-01-09T22:33:57.865Z,96700.16
2023-01-09T22:36:24.719Z,96690.06
2023-01-09T22:38:53.819Z,96700.63
2023-01-09T22:41:21.028Z,96699.75
2023-01-09T22:43:47.619Z,96718.75
2023-01-09T22:46:14.325Z,96731.78
2023-01-09T22:48:42.068Z,96732.63
2023-01-09T22:51:11.528Z,96742.22
2023-01-09T22:53:38.285Z,96740.09
2023-01-09T22:56:05.814Z,96749.84
2023-01-09T22:58:32.589Z,96763.38
2023-01-09T23:00:59.296Z,96765.03
2023-01-09T23:03:38.082Z,96776.31
2023-01-09T23:06:12.081Z,96774.81
2023-01-09T23:08:38.725Z,96778.69
2023-01-09T23:11:06.975Z,96780.00
2023-01-09T23:13:33.609Z,96789.81
2023-01-09T23:16:01.789Z,96797.78
2023-01-09T23:18:28.502Z,96810.06
2023-01-09T23:21:00.538Z,96801.72
2023-01-09T23:23:27.507Z,96801.41
2023-01-09T23:25:55.719Z,96801.84
2023-01-09T23:28:22.719Z,96806.41
2023-01-09T23:30:49.382Z,96801.41
2023-01-09T23:33:16.695Z,96802.78
2023-01-09T23:35:44.098Z,96806.72
2023-01-09T23:38:13.764Z,96809.00
2023-01-09T23:40:41.566Z,96814.91
2023-01-09T23:43:13.316Z,96809.34
2023-01-09T23:45:41.234Z,96800.38
2023-01-09T23:48:09.112Z,96802.19
2023-01-09T23:50:35.890Z,96799.28
2023-01-09T23:53:02.548Z,96793.38
2023-01-09T23:55:29.304Z,96785.22
2023-01-09T23:57:55.939Z,96785.50
